sensor_id;sensor_type;location;lat;lon;timestamp;pressure;altitude;pressure_sealevel;temperature;humidity
4449;BME280;2237;51.870;6.160;2023-05-22T00:00:45;101346.19;;;22.40;100.00
4449;BME280;2237;51.870;6.160;2023-05-22T00:03:12;101340.00;;;22.40;100.00
4449;BME280;2237;51.870;6.160;2023-05-22T00:05:38;101331.28;;;22.38;100.00
4449;BME280;2237;51.870;6.160;2023-05-22T00:08:06;101328.53;;;22.39;100.00
4449;BME280;2237;51.870;6.160;2023-05-22T00:10:38;101323.41;;;22.36;100.00
4449;BME280;2237;51.870;6.160;2023-05-22T00:13:05;101307.41;;;22.24;100.00
4449;BME280;2237;51.870;6.160;2023-05-22T00:15:32;101319.63;;;22.26;100.00
4449;BME280;2237;51.870;6.160;2023-05-22T00:17:58;101326.38;;;22.18;100.00
4449;BME280;2237;51.870;6.160;2023-05-22T00:20:25;101322.41;;;22.11;100.00
4449;BME280;2237;51.870;6.160;2023-05-22T00:22:52;101321.53;;;22.10;100.00
4449;BME280;2237;51.870;6.160;2023-05-22T00:25:19;101317.94;;;21.97;100.00
4449;BME280;2237;51.870;6.160;2023-05-22T00:27:46;101319.94;;;21.93;100.00
4449;BME280;2237;51.870;6.160;2023-05-22T00:30:12;101322.88;;;21.89;100.00
4449;BME280;2237;51.870;6.160;2023-05-22T00:32:39;101308.66;;;21.90;100.00
4449;BME280;2237;51.870;6.160;2023-05-22T00:35:06;101309.53;;;21.90;100.00
4449;BME280;2237;51.870;6.160;2023-05-22T00:37:32;101310.63;;;21.86;100.00
4449;BME280;2237;51.870;6.160;2023-05-22T00:39:59;101310.06;;;21.81;100.00
4449;BME280;2237;51.870;6.160;2023-05-22T00:42:25;101306.25;;;21.85;100.00
4449;BME280;2237;51.870;6.160;2023-05-22T00:44:52;101307.22;;;21.84;100.00
4449;BME280;2237;51.870;6.160;2023-05-22T00:47:18;101309.72;;;21.87;100.00
4449;BME280;2237;51.870;6.160;2023-05-22T00:49:45;101306.09;;;21.88;100.00
4449;BME280;2237;51.870;6.160;2023-05-22T00:52:11;101301.66;;;21.89;100.00
4449;BME280;2237;51.870;6.160;2023-05-22T00:54:39;101302.50;;;21.89;100.00
4449;BME280;2237;51.870;6.160;2023-05-22T00:57:06;101308.16;;;21.83;100.00
4449;BME280;2237;51.870;6.160;2023-05-22T00:59:33;101303.41;;;21.74;100.00
4449;BME280;2237;51.870;6.160;2023-05-22T01:01:59;101303.69;;;21.70;100.00
4449;BME280;2237;51.870;6.160;2023-05-22T01:04:26;101296.97;;;21.64;100.00
4449;BME280;2237;51.870;6.160;2023-05-22T01:06:53;101299.44;;;21.67;100.00
4449;BME280;2237;51.870;6.160;2023-05-22T01:09:20;101293.34;;;21.65;100.00
4449;BME280;2237;51.870;6.160;2023-05-22T01:17:31;101283.53;;;21.67;100.00
4449;BME280;2237;51.870;6.160;2023-05-22T01:20:13;101285.50;;;21.64;100.00
4449;BME280;2237;51.870;6.160;2023-05-22T01:23:23;101282.31;;;21.59;100.00
4449;BME280;2237;51.870;6.160;2023-05-22T01:26:18;101281.44;;;21.58;100.00
4449;BME280;2237;51.870;6.160;2023-05-22T01:31:35;101292.41;;;21.52;100.00
4449;BME280;2237;51.870;6.160;2023-05-22T01:34:06;101291.72;;;21.49;100.00
4449;BME280;2237;51.870;6.160;2023-05-22T01:36:35;101290.06;;;21.48;100.00
4449;BME280;2237;51.870;6.160;2023-05-22T01:39:03;101296.19;;;21.48;100.00
4449;BME280;2237;51.870;6.160;2023-05-22T01:41:32;101287.47;;;21.46;100.00
4449;BME280;2237;51.870;6.160;2023-05-22T01:44:00;101297.16;;;21.47;100.00
4449;BME280;2237;51.870;6.160;2023-05-22T01:46:27;101295.13;;;21.51;100.00
4449;BME280;2237;51.870;6.160;2023-05-22T01:48:54;101287.00;;;21.54;100.00
4449;BME280;2237;51.870;6.160;2023-05-22T01:54:09;101291.72;;;21.49;100.00
4449;BME280;2237;51.870;6.160;2023-05-22T01:56:42;101291.22;;;21.28;100.00
4449;BME280;2237;51.870;6.160;2023-05-22T01:59:18;101289.72;;;21.24;100.00
4449;BME280;2237;51.870;6.160;2023-05-22T02:01:48;101289.34;;;21.30;100.00
4449;BME280;2237;51.870;6.160;2023-05-22T02:04:20;101281.28;;;21.31;100.00
4449;BME280;2237;51.870;6.160;2023-05-22T02:06:50;101280.38;;;21.32;100.00
4449;BME280;2237;51.870;6.160;2023-05-22T02:09:17;101284.81;;;21.32;100.00
4449;BME280;2237;51.870;6.160;2023-05-22T02:11:45;101276.34;;;21.25;100.00
4449;BME280;2237;51.870;6.160;2023-05-22T02:14:13;101285.53;;;21.20;100.00
4449;BME280;2237;51.870;6.160;2023-05-22T02:16:41;101279.06;;;21.10;100.00
4449;BME280;2237;51.870;6.160;2023-05-22T02:19:07;101286.63;;;21.16;100.00
4449;BME280;2237;51.870;6.160;2023-05-22T02:21:34;101280.41;;;21.17;100.00
4449;BME280;2237;51.870;6.160;2023-05-22T02:24:01;101277.56;;;21.20;100.00
4449;BME280;2237;51.870;6.160;2023-05-22T02:26:28;101267.91;;;21.19;100.00
4449;BME280;2237;51.870;6.160;2023-05-22T02:28:54;101266.22;;;21.18;100.00
4449;BME280;2237;51.870;6.160;2023-05-22T02:31:21;101265.44;;;21.16;100.00
4449;BME280;2237;51.870;6.160;2023-05-22T02:33:47;101258.81;;;21.09;100.00
4449;BME280;2237;51.870;6.160;2023-05-22T02:36:14;101266.91;;;21.06;100.00
4449;BME280;2237;51.870;6.160;2023-05-22T02:38:40;101262.72;;;21.02;100.00
4449;BME280;2237;51.870;6.160;2023-05-22T02:41:07;101267.09;;;21.03;100.00
4449;BME280;2237;51.870;6.160;2023-05-22T02:43:33;101261.22;;;20.98;100.00
4449;BME280;2237;51.870;6.160;2023-05-22T02:45:59;101264.81;;;20.97;100.00
4449;BME280;2237;51.870;6.160;2023-05-22T02:48:26;101259.84;;;20.91;100.00
4449;BME280;2237;51.870;6.160;2023-05-22T02:50:54;101254.56;;;20.91;100.00
4449;BME280;2237;51.870;6.160;2023-05-22T02:53:20;101251.16;;;20.89;100.00
4449;BME280;2237;51.870;6.160;2023-05-22T02:55:47;101251.59;;;20.81;100.00
4449;BME280;2237;51.870;6.160;2023-05-22T02:58:13;101251.78;;;20.78;100.00
4449;BME280;2237;51.870;6.160;2023-05-22T03:00:40;101252.78;;;20.75;100.00
4449;BME280;2237;51.870;6.160;2023-05-22T03:03:06;101247.50;;;20.75;100.00
4449;BME280;2237;51.870;6.160;2023-05-22T03:05:33;101249.38;;;20.73;100.00
4449;BME280;2237;51.870;6.160;2023-05-22T03:07:59;101247.78;;;20.71;100.00
4449;BME280;2237;51.870;6.160;2023-05-22T03:10:26;101244.28;;;20.70;100.00
4449;BME280;2237;51.870;6.160;2023-05-22T03:12:53;101249.75;;;20.67;100.00
4449;BME280;2237;51.870;6.160;2023-05-22T03:15:19;101250.03;;;20.63;100.00
4449;BME280;2237;51.870;6.160;2023-05-22T03:17:46;101250.94;;;20.62;100.00
4449;BME280;2237;51.870;6.160;2023-05-22T03:20:12;101259.00;;;20.60;100.00
4449;BME280;2237;51.870;6.160;2023-05-22T03:22:43;101253.94;;;20.56;100.00
4449;BME280;2237;51.870;6.160;2023-05-22T03:25:09;101255.06;;;20.52;100.00
4449;BME280;2237;51.870;6.160;2023-05-22T03:27:38;101257.97;;;20.47;100.00
4449;BME280;2237;51.870;6.160;2023-05-22T03:30:05;101254.47;;;20.47;100.00
4449;BME280;2237;51.870;6.160;2023-05-22T03:32:32;101257.09;;;20.47;100.00
4449;BME280;2237;51.870;6.160;2023-05-22T03:35:03;101255.50;;;20.44;100.00
4449;BME280;2237;51.870;6.160;2023-05-22T03:37:30;101260.03;;;20.42;100.00
4449;BME280;2237;51.870;6.160;2023-05-22T03:39:56;101256.78;;;20.37;100.00
4449;BME280;2237;51.870;6.160;2023-05-22T03:42:23;101242.94;;;20.32;100.00
4449;BME280;2237;51.870;6.160;2023-05-22T03:44:49;101244.72;;;20.32;100.00
4449;BME280;2237;51.870;6.160;2023-05-22T03:47:16;101236.13;;;20.28;100.00
4449;BME280;2237;51.870;6.160;2023-05-22T03:49:42;101240.72;;;20.24;100.00
4449;BME280;2237;51.870;6.160;2023-05-22T03:52:08;101238.84;;;20.26;100.00
4449;BME280;2237;51.870;6.160;2023-05-22T03:54:35;101241.50;;;20.26;100.00
4449;BME280;2237;51.870;6.160;2023-05-22T03:57:02;101246.00;;;20.24;100.00
4449;BME280;2237;51.870;6.160;2023-05-22T03:59:28;101241.63;;;20.23;100.00
4449;BME280;2237;51.870;6.160;2023-05-22T04:01:54;101235.59;;;20.21;100.00
4449;BME280;2237;51.870;6.160;2023-05-22T04:04:23;101225.88;;;20.22;100.00
4449;BME280;2237;51.870;6.160;2023-05-22T04:06:52;101222.81;;;20.14;100.00
4449;BME280;2237;51.870;6.160;2023-05-22T04:09:18;101230.09;;;20.09;100.00
4449;BME280;2237;51.870;6.160;2023-05-22T04:11:45;101238.22;;;20.06;100.00
4449;BME280;2237;51.870;6.160;2023-05-22T04:14:13;101242.03;;;20.00;100.00
4449;BME280;2237;51.870;6.160;2023-05-22T04:16:40;101234.22;;;19.99;100.00
4449;BME280;2237;51.870;6.160;2023-05-22T04:19:06;101230.28;;;20.06;100.00
4449;BME280;2237;51.870;6.160;2023-05-22T04:21:34;101231.06;;;20.08;100.00
4449;BME280;2237;51.870;6.160;2023-05-22T04:24:01;101232.25;;;20.02;100.00
4449;BME280;2237;51.870;6.160;2023-05-22T04:26:32;101241.88;;;19.88;100.00
4449;BME280;2237;51.870;6.160;2023-05-22T04:28:59;101239.47;;;19.67;100.00
4449;BME280;2237;51.870;6.160;2023-05-22T04:31:25;101243.25;;;19.62;100.00
4449;BME280;2237;51.870;6.160;2023-05-22T04:33:51;101247.13;;;19.72;100.00
4449;BME280;2237;51.870;6.160;2023-05-22T04:36:19;101245.41;;;19.71;100.00
4449;BME280;2237;51.870;6.160;2023-05-22T04:38:47;101246.41;;;19.53;100.00
4449;BME280;2237;51.870;6.160;2023-05-22T04:41:15;101255.94;;;19.55;100.00
4449;BME280;2237;51.870;6.160;2023-05-22T04:43:43;101259.81;;;19.65;100.00
4449;BME280;2237;51.870;6.160;2023-05-22T04:46:10;101258.56;;;19.72;100.00
4449;BME280;2237;51.870;6.160;2023-05-22T04:48:36;101253.81;;;19.79;100.00
4449;BME280;2237;51.870;6.160;2023-05-22T04:51:03;101250.31;;;19.79;100.00
4449;BME280;2237;51.870;6.160;2023-05-22T04:53:29;101252.25;;;19.75;100.00
4449;BME280;2237;51.870;6.160;2023-05-22T04:55:56;101254.13;;;19.73;100.00
4449;BME280;2237;51.870;6.160;2023-05-22T04:58:22;101253.34;;;19.71;100.00
4449;BME280;2237;51.870;6.160;2023-05-22T05:00:48;101260.44;;;19.70;100.00
4449;BME280;2237;51.870;6.160;2023-05-22T05:03:18;101264.69;;;19.73;100.00
4449;BME280;2237;51.870;6.160;2023-05-22T05:05:45;101258.72;;;19.69;100.00
4449;BME280;2237;51.870;6.160;2023-05-22T05:08:12;101260.75;;;19.64;100.00
4449;BME280;2237;51.870;6.160;2023-05-22T05:10:39;101256.56;;;19.60;100.00
4449;BME280;2237;51.870;6.160;2023-05-22T05:13:05;101256.84;;;19.71;100.00
4449;BME280;2237;51.870;6.160;2023-05-22T05:15:32;101255.91;;;19.72;100.00
4449;BME280;2237;51.870;6.160;2023-05-22T05:17:58;101254.63;;;19.64;100.00
4449;BME280;2237;51.870;6.160;2023-05-22T05:20:25;101244.75;;;19.67;100.00
4449;BME280;2237;51.870;6.160;2023-05-22T05:22:52;101252.09;;;19.78;100.00
4449;BME280;2237;51.870;6.160;2023-05-22T05:25:19;101263.47;;;19.96;100.00
4449;BME280;2237;51.870;6.160;2023-05-22T05:27:45;101252.03;;;19.95;100.00
4449;BME280;2237;51.870;6.160;2023-05-22T05:30:12;101266.09;;;19.96;100.00
4449;BME280;2237;51.870;6.160;2023-05-22T05:32:38;101260.06;;;19.94;100.00
4449;BME280;2237;51.870;6.160;2023-05-22T05:35:05;101261.84;;;19.93;100.00
4449;BME280;2237;51.870;6.160;2023-05-22T05:37:31;101267.03;;;19.79;100.00
4449;BME280;2237;51.870;6.160;2023-05-22T05:39:58;101273.84;;;19.83;100.00
4449;BME280;2237;51.870;6.160;2023-05-22T05:42:24;101275.44;;;19.86;100.00
4449;BME280;2237;51.870;6.160;2023-05-22T05:44:51;101264.88;;;19.86;100.00
4449;BME280;2237;51.870;6.160;2023-05-22T05:47:17;101273.44;;;19.91;100.00
4449;BME280;2237;51.870;6.160;2023-05-22T05:49:43;101272.16;;;19.98;100.00
4449;BME280;2237;51.870;6.160;2023-05-22T05:52:10;101273.75;;;19.85;100.00
4449;BME280;2237;51.870;6.160;2023-05-22T05:54:36;101278.25;;;19.67;100.00
4449;BME280;2237;51.870;6.160;2023-05-22T05:57:03;101284.81;;;19.76;100.00
4449;BME280;2237;51.870;6.160;2023-05-22T05:59:29;101298.84;;;19.43;100.00
4449;BME280;2237;51.870;6.160;2023-05-22T06:01:57;101299.72;;;19.44;100.00
4449;BME280;2237;51.870;6.160;2023-05-22T06:04:23;101299.94;;;19.39;100.00
4449;BME280;2237;51.870;6.160;2023-05-22T06:06:49;101292.28;;;19.33;100.00
4449;BME280;2237;51.870;6.160;2023-05-22T06:09:16;101276.22;;;19.21;100.00
4449;BME280;2237;51.870;6.160;2023-05-22T06:11:43;101297.66;;;19.14;100.00
4449;BME280;2237;51.870;6.160;2023-05-22T06:14:09;101291.97;;;19.22;100.00
4449;BME280;2237;51.870;6.160;2023-05-22T06:16:36;101295.03;;;19.49;100.00
4449;BME280;2237;51.870;6.160;2023-05-22T06:19:02;101305.16;;;19.73;100.00
4449;BME280;2237;51.870;6.160;2023-05-22T06:21:29;101310.00;;;19.65;100.00
4449;BME280;2237;51.870;6.160;2023-05-22T06:23:56;101314.88;;;19.40;100.00
4449;BME280;2237;51.870;6.160;2023-05-22T06:26:22;101312.44;;;19.36;100.00
4449;BME280;2237;51.870;6.160;2023-05-22T06:28:51;101301.72;;;19.39;100.00
4449;BME280;2237;51.870;6.160;2023-05-22T06:31:17;101318.78;;;18.97;100.00
4449;BME280;2237;51.870;6.160;2023-05-22T06:33:43;101318.53;;;19.19;100.00
4449;BME280;2237;51.870;6.160;2023-05-22T06:36:10;101323.09;;;19.51;100.00
4449;BME280;2237;51.870;6.160;2023-05-22T06:38:37;101323.50;;;19.44;100.00
4449;BME280;2237;51.870;6.160;2023-05-22T06:41:04;101314.16;;;19.54;100.00
4449;BME280;2237;51.870;6.160;2023-05-22T06:43:31;101311.13;;;19.44;100.00
4449;BME280;2237;51.870;6.160;2023-05-22T06:45:58;101322.94;;;19.54;100.00
4449;BME280;2237;51.870;6.160;2023-05-22T06:48:24;101333.03;;;19.46;100.00
4449;BME280;2237;51.870;6.160;2023-05-22T06:50:51;101334.66;;;19.49;100.00
4449;BME280;2237;51.870;6.160;2023-05-22T06:53:17;101336.91;;;19.56;100.00
4449;BME280;2237;51.870;6.160;2023-05-22T06:55:44;101341.13;;;19.43;100.00
4449;BME280;2237;51.870;6.160;2023-05-22T06:58:10;101333.94;;;19.62;100.00
4449;BME280;2237;51.870;6.160;2023-05-22T07:00:37;101336.88;;;19.73;100.00
4449;BME280;2237;51.870;6.160;2023-05-22T07:03:04;101341.41;;;19.71;100.00
4449;BME280;2237;51.870;6.160;2023-05-22T07:05:32;101339.72;;;19.70;100.00
4449;BME280;2237;51.870;6.160;2023-05-22T07:07:58;101339.13;;;19.98;100.00
4449;BME280;2237;51.870;6.160;2023-05-22T07:10:25;101340.28;;;19.93;100.00
4449;BME280;2237;51.870;6.160;2023-05-22T07:12:53;101346.13;;;19.99;100.00
4449;BME280;2237;51.870;6.160;2023-05-22T07:15:19;101344.16;;;20.03;100.00
4449;BME280;2237;51.870;6.160;2023-05-22T07:17:46;101329.06;;;20.05;100.00
4449;BME280;2237;51.870;6.160;2023-05-22T07:20:12;101330.75;;;19.90;100.00
4449;BME280;2237;51.870;6.160;2023-05-22T07:22:40;101335.38;;;20.02;100.00
4449;BME280;2237;51.870;6.160;2023-05-22T07:25:07;101345.81;;;19.88;100.00
4449;BME280;2237;51.870;6.160;2023-05-22T07:27:34;101339.28;;;19.95;100.00
4449;BME280;2237;51.870;6.160;2023-05-22T07:30:00;101342.56;;;20.16;100.00
4449;BME280;2237;51.870;6.160;2023-05-22T07:32:27;101341.00;;;20.12;100.00
4449;BME280;2237;51.870;6.160;2023-05-22T07:34:53;101336.94;;;20.22;100.00
4449;BME280;2237;51.870;6.160;2023-05-22T07:37:19;101339.56;;;20.39;100.00
4449;BME280;2237;51.870;6.160;2023-05-22T07:39:47;101337.94;;;20.52;100.00
4449;BME280;2237;51.870;6.160;2023-05-22T07:42:13;101346.66;;;21.01;100.00
4449;BME280;2237;51.870;6.160;2023-05-22T07:44:40;101344.44;;;21.09;100.00
4449;BME280;2237;51.870;6.160;2023-05-22T07:47:06;101349.38;;;21.15;100.00
4449;BME280;2237;51.870;6.160;2023-05-22T07:49:34;101337.47;;;21.22;100.00
4449;BME280;2237;51.870;6.160;2023-05-22T07:52:00;101344.38;;;21.25;100.00
4449;BME280;2237;51.870;6.160;2023-05-22T07:54:27;101351.03;;;20.87;100.00
4449;BME280;2237;51.870;6.160;2023-05-22T07:56:53;101345.97;;;20.98;100.00
4449;BME280;2237;51.870;6.160;2023-05-22T07:59:21;101348.50;;;20.99;100.00
4449;BME280;2237;51.870;6.160;2023-05-22T08:01:48;101351.44;;;20.95;100.00
4449;BME280;2237;51.870;6.160;2023-05-22T08:04:15;101351.44;;;20.63;100.00
4449;BME280;2237;51.870;6.160;2023-05-22T08:06:42;101360.13;;;20.50;100.00
4449;BME280;2237;51.870;6.160;2023-05-22T08:09:09;101358.50;;;20.47;100.00
4449;BME280;2237;51.870;6.160;2023-05-22T08:11:36;101360.13;;;20.50;100.00
4449;BME280;2237;51.870;6.160;2023-05-22T08:14:05;101354.16;;;20.62;100.00
4449;BME280;2237;51.870;6.160;2023-05-22T08:16:31;101360.41;;;20.92;100.00
4449;BME280;2237;51.870;6.160;2023-05-22T08:18:58;101359.31;;;20.80;100.00
4449;BME280;2237;51.870;6.160;2023-05-22T08:21:24;101358.84;;;20.88;100.00
4449;BME280;2237;51.870;6.160;2023-05-22T08:23:51;101357.31;;;20.84;100.00
4449;BME280;2237;51.870;6.160;2023-05-22T08:26:17;101347.25;;;20.91;100.00
4449;BME280;2237;51.870;6.160;2023-05-22T08:28:43;101358.59;;;20.93;100.00
4449;BME280;2237;51.870;6.160;2023-05-22T08:31:10;101353.88;;;21.13;100.00
4449;BME280;2237;51.870;6.160;2023-05-22T08:33:38;101350.47;;;21.27;100.00
4449;BME280;2237;51.870;6.160;2023-05-22T08:36:05;101352.84;;;21.16;100.00
4449;BME280;2237;51.870;6.160;2023-05-22T08:38:31;101343.34;;;21.27;100.00
4449;BME280;2237;51.870;6.160;2023-05-22T08:40:58;101349.53;;;21.42;100.00
4449;BME280;2237;51.870;6.160;2023-05-22T08:43:26;101347.84;;;21.71;100.00
4449;BME280;2237;51.870;6.160;2023-05-22T08:46:04;101342.28;;;21.89;100.00
4449;BME280;2237;51.870;6.160;2023-05-22T08:48:31;101343.44;;;22.00;100.00
4449;BME280;2237;51.870;6.160;2023-05-22T08:51:02;101330.63;;;21.92;100.00
4449;BME280;2237;51.870;6.160;2023-05-22T08:53:36;101340.72;;;21.71;100.00
4449;BME280;2237;51.870;6.160;2023-05-22T08:56:05;101333.91;;;21.81;100.00
4449;BME280;2237;51.870;6.160;2023-05-22T08:58:36;101331.28;;;21.81;100.00
4449;BME280;2237;51.870;6.160;2023-05-22T09:01:04;101334.88;;;22.09;100.00
4449;BME280;2237;51.870;6.160;2023-05-22T09:03:31;101334.13;;;22.21;100.00
4449;BME280;2237;51.870;6.160;2023-05-22T09:05:58;101334.69;;;22.40;100.00
4449;BME280;2237;51.870;6.160;2023-05-22T09:08:25;101328.81;;;22.49;100.00
4449;BME280;2237;51.870;6.160;2023-05-22T09:10:52;101328.00;;;22.61;100.00
4449;BME280;2237;51.870;6.160;2023-05-22T09:13:28;101327.41;;;22.84;100.00
4449;BME280;2237;51.870;6.160;2023-05-22T09:16:07;101324.50;;;22.75;100.00
4449;BME280;2237;51.870;6.160;2023-05-22T09:18:38;101323.53;;;22.76;100.00
4449;BME280;2237;51.870;6.160;2023-05-22T09:21:05;101320.06;;;23.15;100.00
4449;BME280;2237;51.870;6.160;2023-05-22T09:23:52;101315.00;;;23.24;100.00
4449;BME280;2237;51.870;6.160;2023-05-22T09:26:19;101316.19;;;23.33;100.00
4449;BME280;2237;51.870;6.160;2023-05-22T09:28:46;101309.44;;;23.67;100.00
4449;BME280;2237;51.870;6.160;2023-05-22T09:31:12;101318.03;;;24.21;100.00
4449;BME280;2237;51.870;6.160;2023-05-22T09:33:42;101315.88;;;24.38;100.00
4449;BME280;2237;51.870;6.160;2023-05-22T09:36:09;101316.22;;;24.34;100.00
4449;BME280;2237;51.870;6.160;2023-05-22T09:38:36;101307.81;;;24.27;100.00
4449;BME280;2237;51.870;6.160;2023-05-22T09:41:02;101309.56;;;24.03;100.00
4449;BME280;2237;51.870;6.160;2023-05-22T09:43:29;101312.69;;;24.33;100.00
4449;BME280;2237;51.870;6.160;2023-05-22T09:45:58;101311.19;;;24.78;100.00
4449;BME280;2237;51.870;6.160;2023-05-22T09:48:25;101299.84;;;25.11;100.00
4449;BME280;2237;51.870;6.160;2023-05-22T09:50:56;101309.94;;;25.18;100.00
4449;BME280;2237;51.870;6.160;2023-05-22T09:53:26;101307.75;;;24.89;100.00
4449;BME280;2237;51.870;6.160;2023-05-22T09:55:55;101313.44;;;24.71;100.00
4449;BME280;2237;51.870;6.160;2023-05-22T09:58:25;101312.06;;;24.66;100.00
4449;BME280;2237;51.870;6.160;2023-05-22T10:00:53;101315.41;;;24.57;100.00
4449;BME280;2237;51.870;6.160;2023-05-22T10:03:22;101306.47;;;24.82;100.00
4449;BME280;2237;51.870;6.160;2023-05-22T10:05:52;101305.97;;;25.00;100.00
4449;BME280;2237;51.870;6.160;2023-05-22T10:08:42;101305.34;;;25.32;100.00
4449;BME280;2237;51.870;6.160;2023-05-22T10:11:10;101303.34;;;25.46;100.00
4449;BME280;2237;51.870;6.160;2023-05-22T10:13:36;101310.81;;;25.30;100.00
4449;BME280;2237;51.870;6.160;2023-05-22T10:16:03;101304.75;;;25.28;100.00
4449;BME280;2237;51.870;6.160;2023-05-22T10:18:30;101301.72;;;25.56;100.00
4449;BME280;2237;51.870;6.160;2023-05-22T10:20:58;101296.28;;;25.91;100.00
4449;BME280;2237;51.870;6.160;2023-05-22T10:23:25;101306.88;;;26.26;98.68
4449;BME280;2237;51.870;6.160;2023-05-22T10:25:52;101296.16;;;26.37;96.98
4449;BME280;2237;51.870;6.160;2023-05-22T10:28:24;101286.59;;;26.34;95.72
4449;BME280;2237;51.870;6.160;2023-05-22T10:31:30;101295.78;;;26.53;94.62
4449;BME280;2237;51.870;6.160;2023-05-22T10:34:03;101291.69;;;26.15;95.51
4449;BME280;2237;51.870;6.160;2023-05-22T10:39:30;101296.38;;;26.45;93.41
4449;BME280;2237;51.870;6.160;2023-05-22T10:42:00;101289.09;;;26.58;89.62
4449;BME280;2237;51.870;6.160;2023-05-22T10:44:26;101294.13;;;26.29;88.80
4449;BME280;2237;51.870;6.160;2023-05-22T10:46:53;101290.94;;;26.24;94.35
4449;BME280;2237;51.870;6.160;2023-05-22T10:49:22;101289.75;;;26.17;95.38
4449;BME280;2237;51.870;6.160;2023-05-22T10:51:54;101289.38;;;26.11;97.78
4449;BME280;2237;51.870;6.160;2023-05-22T10:54:43;101288.75;;;25.96;91.29
4449;BME280;2237;51.870;6.160;2023-05-22T10:57:17;101291.91;;;26.12;86.38
4449;BME280;2237;51.870;6.160;2023-05-22T10:59:46;101291.69;;;26.37;87.68
4449;BME280;2237;51.870;6.160;2023-05-22T11:02:21;101293.78;;;26.66;98.56
4449;BME280;2237;51.870;6.160;2023-05-22T11:04:48;101291.94;;;26.23;86.39
4449;BME280;2237;51.870;6.160;2023-05-22T11:07:14;101293.97;;;26.42;88.86
4449;BME280;2237;51.870;6.160;2023-05-22T11:09:42;101280.63;;;26.74;85.89
4449;BME280;2237;51.870;6.160;2023-05-22T11:14:50;101291.41;;;26.94;83.90
4449;BME280;2237;51.870;6.160;2023-05-22T11:17:20;101295.47;;;27.10;79.52
4449;BME280;2237;51.870;6.160;2023-05-22T11:20:17;101279.78;;;27.16;78.97
4449;BME280;2237;51.870;6.160;2023-05-22T11:22:49;101283.25;;;27.48;79.37
4449;BME280;2237;51.870;6.160;2023-05-22T11:25:18;101281.31;;;27.81;76.29
4449;BME280;2237;51.870;6.160;2023-05-22T11:27:48;101281.13;;;27.42;73.99
4449;BME280;2237;51.870;6.160;2023-05-22T11:30:15;101265.78;;;27.75;73.40
4449;BME280;2237;51.870;6.160;2023-05-22T11:32:43;101278.84;;;27.98;69.13
4449;BME280;2237;51.870;6.160;2023-05-22T11:35:14;101276.09;;;27.79;70.50
4449;BME280;2237;51.870;6.160;2023-05-22T11:37:42;101278.09;;;27.87;71.91
4449;BME280;2237;51.870;6.160;2023-05-22T11:40:09;101275.19;;;27.99;74.50
4449;BME280;2237;51.870;6.160;2023-05-22T11:42:36;101272.38;;;28.31;76.50
4449;BME280;2237;51.870;6.160;2023-05-22T11:45:04;101272.72;;;27.77;85.34
4449;BME280;2237;51.870;6.160;2023-05-22T11:47:30;101262.13;;;27.76;91.86
4449;BME280;2237;51.870;6.160;2023-05-22T11:49:57;101267.66;;;27.84;94.40
4449;BME280;2237;51.870;6.160;2023-05-22T11:52:32;101272.50;;;27.60;89.35
4449;BME280;2237;51.870;6.160;2023-05-22T11:54:59;101271.72;;;27.78;95.54
4449;BME280;2237;51.870;6.160;2023-05-22T11:57:26;101273.81;;;27.75;89.90
4449;BME280;2237;51.870;6.160;2023-05-22T11:59:53;101263.63;;;27.99;91.06
4449;BME280;2237;51.870;6.160;2023-05-22T12:02:19;101262.19;;;27.95;90.55
4449;BME280;2237;51.870;6.160;2023-05-22T12:04:46;101272.50;;;27.69;91.53
4449;BME280;2237;51.870;6.160;2023-05-22T12:07:13;101267.28;;;27.98;89.38
4449;BME280;2237;51.870;6.160;2023-05-22T12:09:40;101267.13;;;28.20;88.10
4449;BME280;2237;51.870;6.160;2023-05-22T12:12:10;101274.72;;;27.85;89.00
4449;BME280;2237;51.870;6.160;2023-05-22T12:14:37;101268.13;;;27.89;90.65
4449;BME280;2237;51.870;6.160;2023-05-22T12:17:03;101266.81;;;27.83;92.03
4449;BME280;2237;51.870;6.160;2023-05-22T12:19:30;101260.91;;;27.80;92.52
4449;BME280;2237;51.870;6.160;2023-05-22T12:21:58;101261.81;;;27.99;92.12
4449;BME280;2237;51.870;6.160;2023-05-22T12:24:24;101263.16;;;28.64;92.57
4449;BME280;2237;51.870;6.160;2023-05-22T12:26:52;101270.66;;;28.99;85.28
4449;BME280;2237;51.870;6.160;2023-05-22T12:29:21;101261.75;;;28.89;85.98
4449;BME280;2237;51.870;6.160;2023-05-22T12:31:47;101270.97;;;28.37;85.13
4449;BME280;2237;51.870;6.160;2023-05-22T12:34:15;101267.28;;;28.28;88.98
4449;BME280;2237;51.870;6.160;2023-05-22T12:36:45;101266.03;;;28.32;88.92
4449;BME280;2237;51.870;6.160;2023-05-22T12:39:16;101251.97;;;28.49;86.42
4449;BME280;2237;51.870;6.160;2023-05-22T12:41:44;101256.53;;;28.68;82.92
4449;BME280;2237;51.870;6.160;2023-05-22T12:44:13;101254.53;;;28.80;82.11
4449;BME280;2237;51.870;6.160;2023-05-22T12:46:40;101255.81;;;29.04;82.65
4449;BME280;2237;51.870;6.160;2023-05-22T12:49:07;101265.81;;;29.50;77.79
4449;BME280;2237;51.870;6.160;2023-05-22T12:51:33;101267.13;;;29.08;79.15
4449;BME280;2237;51.870;6.160;2023-05-22T12:54:01;101258.78;;;28.92;80.16
4449;BME280;2237;51.870;6.160;2023-05-22T12:56:29;101252.44;;;29.31;79.04
4449;BME280;2237;51.870;6.160;2023-05-22T12:58:56;101249.28;;;29.45;72.45
4449;BME280;2237;51.870;6.160;2023-05-22T13:01:23;101249.75;;;29.78;71.01
4449;BME280;2237;51.870;6.160;2023-05-22T13:03:52;101251.84;;;29.84;69.32
4449;BME280;2237;51.870;6.160;2023-05-22T13:06:19;101255.56;;;29.83;67.82
4449;BME280;2237;51.870;6.160;2023-05-22T13:08:46;101252.47;;;29.68;70.53
4449;BME280;2237;51.870;6.160;2023-05-22T13:11:12;101251.66;;;30.22;68.27
4449;BME280;2237;51.870;6.160;2023-05-22T13:13:38;101246.50;;;29.28;72.41
4449;BME280;2237;51.870;6.160;2023-05-22T13:16:05;101249.03;;;29.10;79.44
4449;BME280;2237;51.870;6.160;2023-05-22T13:18:31;101245.06;;;29.33;74.18
4449;BME280;2237;51.870;6.160;2023-05-22T13:20:58;101246.31;;;29.48;71.97
4449;BME280;2237;51.870;6.160;2023-05-22T13:23:25;101257.66;;;29.69;73.12